createdAt,value
2022-10-25T06:15:12.341Z,100525.63
2022-10-25T06:17:40.288Z,100555.22
2022-10-25T06:20:09.475Z,100520.34
2022-10-25T06:22:38.426Z,100526.03
2022-10-25T06:25:07.563Z,100561.59
2022-10-25T06:27:35.619Z,100562.09
2022-10-25T06:30:04.124Z,100561.38
2022-10-25T06:32:33.658Z,100537.88
2022-10-25T06:35:01.623Z,100554.97
2022-10-25T06:37:30.314Z,100506.56
2022-10-25T06:39:58.295Z,100537.97
2022-10-25T06:42:26.528Z,100570.28
2022-10-25T06:44:58.606Z,100540.84
2022-10-25T06:47:29.327Z,100576.69
2022-10-25T06:50:00.718Z,100580.16
2022-10-25T06:52:35.791Z,100513.66
2022-10-25T06:55:06.437Z,100548.44
2022-10-25T06:57:37.023Z,100547.03
2022-10-25T07:00:05.709Z,100564.66
2022-10-25T07:02:33.660Z,100578.19
2022-10-25T07:05:03.280Z,100553.88
2022-10-25T07:07:31.094Z,100583.84
2022-10-25T07:09:58.862Z,100548.53
2022-10-25T07:12:26.934Z,100607.34
2022-10-25T07:14:54.898Z,100591.34
2022-10-25T07:17:22.745Z,100582.75
2022-10-25T07:19:50.796Z,100584.56
2022-10-25T07:22:21.501Z,100601.41
2022-10-25T07:24:49.832Z,100569.84
2022-10-25T07:27:18.244Z,100546.34
2022-10-25T07:29:46.212Z,100594.75
2022-10-25T07:32:14.341Z,100607.63
2022-10-25T07:34:42.416Z,100626.75
2022-10-25T07:37:10.591Z,100612.81
2022-10-25T07:39:39.914Z,100630.44
2022-10-25T07:42:07.851Z,100613.16
2022-10-25T07:44:35.940Z,100616.72
2022-10-25T07:47:03.724Z,100617.19
2022-10-25T07:49:32.219Z,100581.03
2022-10-25T07:52:00.454Z,100630.25
2022-10-25T07:54:28.531Z,100634.09
2022-10-25T07:56:58.699Z,100637.06
2022-10-25T07:59:26.703Z,100608.00
2022-10-25T08:01:55.477Z,100619.50
2022-10-25T08:04:24.951Z,100628.41
2022-10-25T08:06:52.975Z,100622.50
2022-10-25T08:09:37.302Z,100623.88
2022-10-25T08:12:09.323Z,100633.28
2022-10-25T08:14:40.693Z,100618.00
2022-10-25T08:17:10.569Z,100646.31
2022-10-25T08:19:39.301Z,100634.56
2022-10-25T08:22:08.410Z,100630.44
2022-10-25T08:24:38.804Z,100620.94
2022-10-25T08:27:08.941Z,100594.84
2022-10-25T08:29:37.061Z,100619.41
2022-10-25T08:32:05.273Z,100600.53
2022-10-25T08:34:33.984Z,100646.22
2022-10-25T08:37:02.040Z,100640.66
2022-10-25T08:39:32.850Z,100587.72
2022-10-25T08:42:03.667Z,100644.13
2022-10-25T08:44:47.695Z,100608.88
2022-10-25T08:47:21.244Z,100644.94
2022-10-25T08:49:56.000Z,100608.81
2022-10-25T08:52:30.787Z,100586.22
2022-10-25T08:55:04.770Z,100619.25
2022-10-25T08:57:40.770Z,100631.16
2022-10-25T09:00:18.098Z,100654.66
2022-10-25T09:02:51.728Z,100642.84
2022-10-25T09:05:35.741Z,100665.09
2022-10-25T09:08:17.265Z,100651.16
2022-10-25T09:10:52.582Z,100639.38
2022-10-25T09:13:36.341Z,100643.19
2022-10-25T09:16:16.283Z,100641.72
2022-10-25T09:18:50.443Z,100670.63
2022-10-25T09:21:26.863Z,100644.72
2022-10-25T09:24:01.516Z,100649.03
2022-10-25T09:26:48.531Z,100684.66
2022-10-25T09:29:24.630Z,100683.59
2022-10-25T09:31:59.367Z,100678.78
2022-10-25T09:34:33.087Z,100660.34
2022-10-25T09:37:08.749Z,100686.78
2022-10-25T09:39:40.408Z,100652.25
2022-10-25T09:42:18.649Z,100673.31
2022-10-25T09:44:56.763Z,100635.03
2022-10-25T09:47:39.192Z,100683.09
2022-10-25T09:50:13.846Z,100681.53
2022-10-25T09:52:48.314Z,100663.78
2022-10-25T09:55:32.614Z,100646.59
2022-10-25T09:58:01.538Z,100690.81
2022-10-25T10:00:29.574Z,100683.84
2022-10-25T10:03:02.202Z,100691.97
2022-10-25T10:05:31.845Z,100654.44
2022-10-25T10:08:00.279Z,100641.31
2022-10-25T10:10:34.630Z,100694.72
2022-10-25T10:13:07.854Z,100669.41
2022-10-25T10:15:44.064Z,100636.47
2022-10-25T10:18:25.395Z,100668.41
2022-10-25T10:21:07.455Z,100670.66
2022-10-25T10:23:45.550Z,100652.25
2022-10-25T10:26:24.627Z,100630.28
2022-10-25T10:29:04.191Z,100623.06
2022-10-25T10:31:42.966Z,100636.28
2022-10-25T10:34:30.174Z,100668.16
2022-10-25T10:37:18.727Z,100672.97
2022-10-25T10:39:55.452Z,100689.81
2022-10-25T10:42:35.620Z,100695.44
2022-10-25T10:45:16.450Z,100648.72
2022-10-25T10:47:47.405Z,100630.69
2022-10-25T10:56:25.935Z,100643.88
2022-10-25T10:58:54.387Z,100666.53
2022-10-25T11:01:33.870Z,100668.16
2022-10-25T11:04:03.906Z,100651.38
2022-10-25T11:06:35.882Z,100681.28
2022-10-25T11:09:17.539Z,100669.72
2022-10-25T11:11:47.130Z,100666.97
2022-10-25T11:14:17.662Z,100632.38
2022-10-25T11:17:04.107Z,100657.53
2022-10-25T11:19:48.206Z,100655.66
2022-10-25T11:22:33.387Z,100672.97
2022-10-25T11:25:21.489Z,100672.19
2022-10-25T11:28:08.481Z,100643.34
2022-10-25T11:30:42.569Z,100650.94
2022-10-25T11:33:35.256Z,100613.78
2022-10-25T11:36:18.655Z,100663.19
2022-10-25T11:39:03.353Z,100656.66
2022-10-25T11:41:44.957Z,100619.50
2022-10-25T11:44:33.363Z,100662.41
2022-10-25T11:47:11.355Z,100637.06
2022-10-25T11:49:56.815Z,100660.63
2022-10-25T11:52:32.660Z,100666.25
2022-10-25T11:55:10.919Z,100623.97
2022-10-25T11:57:48.480Z,100655.63
2022-10-25T12:00:18.855Z,100626.84
2022-10-25T12:03:09.874Z,100615.31
2022-10-25T12:05:48.010Z,100626.22
2022-10-25T12:08:27.353Z,100631.09
2022-10-25T12:11:03.745Z,100633.63
2022-10-25T12:13:34.928Z,100636.09
2022-10-25T12:16:06.533Z,100659.81
2022-10-25T12:18:39.594Z,100614.31
2022-10-25T12:21:10.485Z,100635.56
2022-10-25T12:23:44.383Z,100658.28
2022-10-25T12:26:26.835Z,100654.78
2022-10-25T12:28:55.415Z,100641.03
2022-10-25T12:31:26.756Z,100666.91
2022-10-25T12:34:00.144Z,100637.84
2022-10-25T12:36:33.259Z,100624.91
2022-10-25T12:39:05.183Z,100629.53
2022-10-25T12:41:39.386Z,100633.56
2022-10-25T12:44:18.605Z,100617.41
2022-10-25T12:47:13.574Z,100659.91
2022-10-25T12:50:00.797Z,100652.69
2022-10-25T12:52:36.004Z,100654.00
2022-10-25T12:55:37.094Z,100643.56
2022-10-25T12:58:22.473Z,100626.00
2022-10-25T13:01:07.728Z,100652.44
2022-10-25T13:03:55.039Z,100621.75
2022-10-25T13:06:31.344Z,100638.41
2022-10-25T13:09:06.005Z,100641.66
2022-10-25T13:11:36.796Z,100607.97
2022-10-25T13:14:14.131Z,100632.84
2022-10-25T13:16:42.155Z,100614.78
2022-10-25T13:22:39.427Z,100625.91
2022-10-25T13:25:19.085Z,100633.13
2022-10-25T13:28:20.003Z,100637.19
2022-10-25T13:30:49.595Z,100611.91
2022-10-25T13:33:36.656Z,100596.59
2022-10-25T13:36:07.125Z,100596.31
2022-10-25T13:38:41.944Z,100606.28
2022-10-25T13:41:15.470Z,100577.25
2022-10-25T13:44:03.969Z,100624.34
2022-10-25T13:46:36.669Z,100601.50
2022-10-25T13:49:23.579Z,100582.09
2022-10-25T13:51:54.830Z,100600.69
2022-10-25T13:54:23.628Z,100597.75
2022-10-25T13:56:53.646Z,100597.75
2022-10-25T13:59:38.252Z,100595.88
2022-10-25T14:02:18.632Z,100595.38
2022-10-25T14:04:47.037Z,100592.66
2022-10-25T14:07:47.934Z,100598.84
2022-10-25T14:10:24.310Z,100596.94
2022-10-25T14:12:55.325Z,100602.03
2022-10-25T14:15:45.935Z,100578.63
2022-10-25T14:18:21.164Z,100598.56
2022-10-25T14:20:52.655Z,100580.50
2022-10-25T14:23:26.392Z,100598.50
2022-10-25T14:25:58.072Z,100574.28
2022-10-25T14:28:28.205Z,100571.56
2022-10-25T14:30:58.259Z,100581.56
2022-10-25T14:33:35.511Z,100604.69
2022-10-25T14:36:10.965Z,100592.84
2022-10-25T14:38:51.686Z,100591.53
2022-10-25T14:41:23.619Z,100593.13
2022-10-25T14:43:52.094Z,100573.47
2022-10-25T14:46:21.604Z,100594.50
2022-10-25T14:48:56.263Z,100591.25
2022-10-25T14:51:30.389Z,100589.91
2022-10-25T14:54:02.367Z,100567.03
2022-10-25T14:56:33.573Z,100546.06
2022-10-25T14:59:03.901Z,100540.13
2022-10-25T15:01:32.031Z,100586.41
2022-10-25T15:04:02.487Z,100559.50
2022-10-25T15:06:33.671Z,100579.66
2022-10-25T15:09:40.748Z,100532.59
2022-10-25T15:12:08.610Z,100575.66
2022-10-25T15:14:37.459Z,100566.47
2022-10-25T15:17:06.674Z,100542.78
2022-10-25T15:20:00.775Z,100567.56
2022-10-25T15:22:31.032Z,100564.59
2022-10-25T15:24:59.022Z,100534.72
2022-10-25T15:27:33.456Z,100516.94
2022-10-25T15:30:01.717Z,100576.13
2022-10-25T15:32:30.288Z,100571.00
2022-10-25T15:35:02.804Z,100535.47
2022-10-25T15:37:32.979Z,100555.06
2022-10-25T15:40:01.205Z,100540.28
2022-10-25T15:42:30.951Z,100504.16
2022-10-25T15:44:59.898Z,100566.91
2022-10-25T15:47:44.355Z,100566.91
2022-10-25T15:50:20.841Z,100562.09
2022-10-25T15:52:50.266Z,100511.38
2022-10-25T15:55:24.357Z,100511.69
2022-10-25T15:57:54.537Z,100515.69
2022-10-25T16:00:29.640Z,100515.13
2022-10-25T16:02:59.531Z,100510.28
2022-10-25T16:05:36.158Z,100552.00
2022-10-25T16:08:08.716Z,100550.09
2022-10-25T16:10:38.975Z,100506.47
2022-10-25T16:13:18.520Z,100542.03
2022-10-25T16:15:47.295Z,100537.97
2022-10-25T16:18:19.134Z,100507.84
2022-10-25T16:21:00.148Z,100525.25
2022-10-25T16:23:31.325Z,100494.56
2022-10-25T16:26:00.206Z,100482.97
2022-10-25T16:28:29.716Z,100505.06
2022-10-25T16:30:58.139Z,100485.38
2022-10-25T16:33:26.151Z,100515.00
2022-10-25T16:36:06.114Z,100523.59
2022-10-25T16:38:34.959Z,100513.00
2022-10-25T16:41:07.740Z,100464.75
2022-10-25T16:46:39.356Z,100523.19
2022-10-25T16:49:22.115Z,100460.38
2022-10-25T16:52:00.856Z,100473.72
2022-10-25T16:54:38.987Z,100512.22
2022-10-25T16:57:12.221Z,100490.59
2022-10-25T16:59:50.043Z,100503.00
2022-10-25T17:02:30.597Z,100494.63
2022-10-25T18:21:19.021Z,100428.84
2022-10-25T18:23:57.506Z,100463.00
2022-10-25T18:26:37.569Z,100496.16
2022-10-25T18:29:20.775Z,100487.59
2022-10-25T18:31:54.316Z,100468.59
2022-10-25T18:34:28.144Z,100429.22
2022-10-25T18:37:06.254Z,100486.13
2022-10-25T18:39:51.462Z,100415.13
2022-10-25T18:42:41.229Z,100427.22
2022-10-25T18:45:14.156Z,100424.22
2022-10-25T18:47:48.649Z,100465.78
2022-10-25T18:50:30.459Z,100440.94
2022-10-25T18:53:07.477Z,100476.84
2022-10-25T18:55:53.004Z,100463.72
2022-10-25T18:58:23.363Z,100423.78
2022-10-25T19:01:08.132Z,100392.56
2022-10-25T19:03:47.784Z,100383.88
2022-10-25T19:06:20.469Z,100386.31
2022-10-25T19:08:57.297Z,100449.25
2022-10-25T19:11:29.929Z,100371.00
2022-10-25T19:14:05.285Z,100410.91
2022-10-25T19:16:44.981Z,100439.88
2022-10-25T19:19:32.345Z,100439.06
2022-10-25T19:22:16.728Z,100375.28
2022-10-25T19:24:54.225Z,100393.69
2022-10-25T19:27:26.391Z,100385.50
2022-10-25T19:30:05.304Z,100384.44
2022-10-25T19:32:48.938Z,100412.28
2022-10-25T19:35:33.333Z,100365.59
2022-10-25T19:38:14.183Z,100355.91
2022-10-25T19:40:58.618Z,100414.16
